PWSweather.com
Personal Weather Stations
Station Observations
CEPLANZA
Titerroy, ArrecifeES 35500

TiterroyArrecifeES 35500

Lat: 28.968073, Lon: -13.554033

Elevation: 6

Station Type: PCE-FWS 20

http://ceplanzarote.es/tic

High Low Average
Temperature 74.7°F23.7°C 64.6°F18.1°C 68.8°F20.4°C
Dew Point 61.3°F16.3°C 55.0°F12.8°C 57.9°F14.4°C
Winds 19.0 mph 30.6 kmh 4.5 mph 7.2 kmh 12.0 mph NE19.3 kmh NE
Wind Gusts 25.9 mph41.7 kmh 12.1 mph19.5 kmh 20.0 mph32.2 kmh
Humidity 83% 57% 69%
Pressure 29.86 in1011.2 mb 29.79 in1008.8 mb -
Precipitation 0.00 in0.0 mm - -
Hour Temp Dew Point Humidity Winds Wind Gusts Pressure Precip Precip Rate Daily Precip Total
12:00 AM 66.2°F19.0°C 56.9°F13.8°C 72% 8.3 mph NNE13.4 kmh NNE 15.9 mph25.6 kmh 29.84 in1010.5 mb 0.00 in0.0 mm 0.00 in0.0 mm 0.00 in0.0 mm
12:15 AM 65.8°F18.8°C 56.2°F13.4°C 71% 10.7 mph N17.2 kmh N 18.3 mph29.5 kmh 29.85 in1010.8 mb 0.00 in0.0 mm 0.00 in0.0 mm 0.00 in0.0 mm
12:30 AM 65.7°F18.7°C 55.6°F13.1°C 70% 12.1 mph N19.5 kmh N 17.4 mph28.0 kmh 29.84 in1010.5 mb 0.00 in0.0 mm 0.00 in0.0 mm 0.00 in0.0 mm
12:45 AM 65.8°F18.8°C 56.2°F13.4°C 71% 11.4 mph NNE18.3 kmh NNE 20.6 mph33.2 kmh 29.84 in1010.5 mb 0.00 in0.0 mm 0.00 in0.0 mm 0.00 in0.0 mm
01:00 AM 65.8°F18.8°C 56.2°F13.4°C 71% 5.4 mph NNE8.7 kmh NNE 15.9 mph25.6 kmh 29.84 in1010.5 mb 0.00 in0.0 mm 0.00 in0.0 mm 0.00 in0.0 mm
01:15 AM 66.0°F18.9°C 56.7°F13.7°C 72% 9.2 mph NNE14.8 kmh NNE 16.8 mph27.0 kmh 29.84 in1010.5 mb 0.00 in0.0 mm 0.00 in0.0 mm 0.00 in0.0 mm
01:30 AM 65.8°F18.8°C 56.2°F13.4°C 71% 9.2 mph NNE14.8 kmh NNE 19.0 mph30.6 kmh 29.83 in1010.2 mb 0.00 in0.0 mm 0.00 in0.0 mm 0.00 in0.0 mm
01:45 AM 65.5°F18.6°C 55.4°F13.0°C 70% 11.4 mph N18.3 kmh N 19.0 mph30.6 kmh 29.83 in1010.2 mb 0.00 in0.0 mm 0.00 in0.0 mm 0.00 in0.0 mm
02:00 AM 65.3°F18.5°C 56.0°F13.3°C 72% 9.2 mph NNE14.8 kmh NNE 16.8 mph27.0 kmh 29.82 in1009.8 mb 0.00 in0.0 mm 0.00 in0.0 mm 0.00 in0.0 mm
02:15 AM 65.3°F18.5°C 55.7°F13.2°C 71% 6.9 mph N11.1 kmh N 22.1 mph35.6 kmh 29.82 in1009.8 mb 0.00 in0.0 mm 0.00 in0.0 mm 0.00 in0.0 mm
02:30 AM 65.3°F18.5°C 56.0°F13.3°C 72% 9.2 mph NNE14.8 kmh NNE 15.2 mph24.5 kmh 29.82 in1009.8 mb 0.00 in0.0 mm 0.00 in0.0 mm 0.00 in0.0 mm
02:45 AM 65.1°F18.4°C 55.5°F13.1°C 71% 9.8 mph NNE15.8 kmh NNE 16.8 mph27.0 kmh 29.81 in1009.5 mb 0.00 in0.0 mm 0.00 in0.0 mm 0.00 in0.0 mm
03:00 AM 65.3°F18.5°C 55.7°F13.2°C 71% 9.8 mph N15.8 kmh N 13.6 mph21.9 kmh 29.81 in1009.5 mb 0.00 in0.0 mm 0.00 in0.0 mm 0.00 in0.0 mm
03:15 AM 65.5°F18.6°C 55.8°F13.2°C 71% 8.3 mph NNE13.4 kmh NNE 16.8 mph27.0 kmh 29.81 in1009.5 mb 0.00 in0.0 mm 0.00 in0.0 mm 0.00 in0.0 mm
03:30 AM 65.3°F18.5°C 56.0°F13.3°C 72% 9.8 mph N15.8 kmh N 15.9 mph25.6 kmh 29.81 in1009.5 mb 0.00 in0.0 mm 0.00 in0.0 mm 0.00 in0.0 mm
03:45 AM 64.8°F18.2°C 55.1°F12.8°C 71% 8.3 mph NNE13.4 kmh NNE 14.5 mph23.3 kmh 29.81 in1009.5 mb 0.00 in0.0 mm 0.00 in0.0 mm 0.00 in0.0 mm
04:00 AM 64.8°F18.2°C 55.1°F12.8°C 71% 9.2 mph N14.8 kmh N 13.0 mph20.9 kmh 29.81 in1009.5 mb 0.00 in0.0 mm 0.00 in0.0 mm 0.00 in0.0 mm
04:15 AM 64.9°F18.3°C 55.3°F12.9°C 71% 9.8 mph N15.8 kmh N 13.6 mph21.9 kmh 29.81 in1009.5 mb 0.00 in0.0 mm 0.00 in0.0 mm 0.00 in0.0 mm
04:30 AM 64.6°F18.1°C 55.0°F12.8°C 71% 9.2 mph N14.8 kmh N 14.5 mph23.3 kmh 29.81 in1009.5 mb 0.00 in0.0 mm 0.00 in0.0 mm 0.00 in0.0 mm
04:45 AM 64.8°F18.2°C 55.5°F13.1°C 72% 10.7 mph N17.2 kmh N 15.2 mph24.5 kmh 29.80 in1009.1 mb 0.00 in0.0 mm 0.00 in0.0 mm 0.00 in0.0 mm
05:00 AM 64.8°F18.2°C 55.9°F13.3°C 73% 9.2 mph N14.8 kmh N 14.5 mph23.3 kmh 29.80 in1009.1 mb 0.00 in0.0 mm 0.00 in0.0 mm 0.00 in0.0 mm
05:15 AM 64.9°F18.3°C 56.1°F13.4°C 73% 6.9 mph N11.1 kmh N 12.1 mph19.5 kmh 29.80 in1009.1 mb 0.00 in0.0 mm 0.00 in0.0 mm 0.00 in0.0 mm
05:30 AM 64.9°F18.3°C 55.7°F13.2°C 72% 9.8 mph NNE15.8 kmh NNE 13.6 mph21.9 kmh 29.80 in1009.1 mb 0.00 in0.0 mm 0.00 in0.0 mm 0.00 in0.0 mm
05:45 AM 64.8°F18.2°C 55.1°F12.8°C 71% 6.0 mph N9.7 kmh N 13.6 mph21.9 kmh 29.80 in1009.1 mb 0.00 in0.0 mm 0.00 in0.0 mm 0.00 in0.0 mm
06:00 AM 64.8°F18.2°C 55.1°F12.8°C 71% 9.8 mph NNE15.8 kmh NNE 20.6 mph33.2 kmh 29.81 in1009.5 mb 0.00 in0.0 mm 0.00 in0.0 mm 0.00 in0.0 mm
06:15 AM 64.8°F18.2°C 55.5°F13.1°C 72% 9.8 mph N15.8 kmh N 13.0 mph20.9 kmh 29.80 in1009.1 mb 0.00 in0.0 mm 0.00 in0.0 mm 0.00 in0.0 mm
06:30 AM 64.9°F18.3°C 55.7°F13.2°C 72% 6.9 mph NNE11.1 kmh NNE 13.6 mph21.9 kmh 29.81 in1009.5 mb 0.00 in0.0 mm 0.00 in0.0 mm 0.00 in0.0 mm
06:45 AM 65.1°F18.4°C 55.5°F13.1°C 71% 6.9 mph NNE11.1 kmh NNE 13.6 mph21.9 kmh 29.81 in1009.5 mb 0.00 in0.0 mm 0.00 in0.0 mm 0.00 in0.0 mm
07:00 AM 65.7°F18.7°C 56.0°F13.3°C 71% 7.6 mph N12.2 kmh N 13.6 mph21.9 kmh 29.81 in1009.5 mb 0.00 in0.0 mm 0.00 in0.0 mm 0.00 in0.0 mm
07:15 AM 66.2°F19.0°C 56.5°F13.6°C 71% 6.9 mph NE11.1 kmh NE 13.6 mph21.9 kmh 29.81 in1009.5 mb 0.00 in0.0 mm 0.00 in0.0 mm 0.00 in0.0 mm
07:30 AM 66.9°F19.4°C 57.6°F14.2°C 72% 4.5 mph NNE7.2 kmh NNE 13.0 mph20.9 kmh 29.82 in1009.8 mb 0.00 in0.0 mm 0.00 in0.0 mm 0.00 in0.0 mm
07:45 AM 67.5°F19.7°C 56.9°F13.8°C 69% 9.2 mph N14.8 kmh N 15.2 mph24.5 kmh 29.83 in1010.2 mb 0.00 in0.0 mm 0.00 in0.0 mm 0.00 in0.0 mm
08:00 AM 68.4°F20.2°C 57.8°F14.3°C 69% 9.2 mph N14.8 kmh N 15.2 mph24.5 kmh 29.83 in1010.2 mb 0.00 in0.0 mm 0.00 in0.0 mm 0.00 in0.0 mm
08:15 AM 69.8°F21.0°C 57.9°F14.4°C 66% 6.9 mph NNE11.1 kmh NNE 18.3 mph29.5 kmh 29.83 in1010.2 mb 0.00 in0.0 mm 0.00 in0.0 mm 0.00 in0.0 mm
08:30 AM 70.7°F21.5°C 57.9°F14.4°C 64% 7.6 mph NE12.2 kmh NE 17.4 mph28.0 kmh 29.84 in1010.5 mb 0.00 in0.0 mm 0.00 in0.0 mm 0.00 in0.0 mm
08:45 AM 70.2°F21.2°C 57.4°F14.1°C 64% 9.8 mph N15.8 kmh N 15.2 mph24.5 kmh 29.85 in1010.8 mb 0.00 in0.0 mm 0.00 in0.0 mm 0.00 in0.0 mm
09:00 AM 70.3°F21.3°C 58.0°F14.4°C 65% 9.8 mph N15.8 kmh N 20.6 mph33.2 kmh 29.85 in1010.8 mb 0.00 in0.0 mm 0.00 in0.0 mm 0.00 in0.0 mm
09:15 AM 70.0°F21.1°C 58.5°F14.7°C 67% 15.2 mph N24.5 kmh N 22.1 mph35.6 kmh 29.86 in1011.2 mb 0.00 in0.0 mm 0.00 in0.0 mm 0.00 in0.0 mm
09:30 AM 70.3°F21.3°C 57.6°F14.2°C 64% 17.4 mph N28.0 kmh N 25.9 mph41.7 kmh 29.85 in1010.8 mb 0.00 in0.0 mm 0.00 in0.0 mm 0.00 in0.0 mm
09:45 AM 70.0°F21.1°C 58.1°F14.5°C 66% 16.8 mph NE27.0 kmh NE 22.1 mph35.6 kmh 29.86 in1011.2 mb 0.00 in0.0 mm 0.00 in0.0 mm 0.00 in0.0 mm
10:00 AM 70.5°F21.4°C 58.2°F14.6°C 65% 13.6 mph N21.9 kmh N 22.8 mph36.7 kmh 29.84 in1010.5 mb 0.00 in0.0 mm 0.00 in0.0 mm 0.00 in0.0 mm
10:15 AM 71.1°F21.7°C 58.3°F14.6°C 64% 16.8 mph N27.0 kmh N 25.1 mph40.4 kmh 29.85 in1010.8 mb 0.00 in0.0 mm 0.00 in0.0 mm 0.00 in0.0 mm
10:30 AM 71.6°F22.0°C 58.8°F14.9°C 64% 13.6 mph N21.9 kmh N 22.8 mph36.7 kmh 29.85 in1010.8 mb 0.00 in0.0 mm 0.00 in0.0 mm 0.00 in0.0 mm
10:45 AM 72.0°F22.2°C 59.1°F15.1°C 64% 17.4 mph N28.0 kmh N 21.3 mph34.3 kmh 29.86 in1011.2 mb 0.00 in0.0 mm 0.00 in0.0 mm 0.00 in0.0 mm
11:00 AM 72.3°F22.4°C 59.5°F15.3°C 64% 15.2 mph NNE24.5 kmh NNE 20.6 mph33.2 kmh 29.85 in1010.8 mb 0.00 in0.0 mm 0.00 in0.0 mm 0.00 in0.0 mm
11:15 AM 72.5°F22.5°C 57.4°F14.1°C 59% 15.2 mph NNE24.5 kmh NNE 24.4 mph39.3 kmh 29.86 in1011.2 mb 0.00 in0.0 mm 0.00 in0.0 mm 0.00 in0.0 mm
11:30 AM 72.9°F22.7°C 58.2°F14.6°C 60% 14.5 mph NNE23.3 kmh NNE 22.1 mph35.6 kmh 29.86 in1011.2 mb 0.00 in0.0 mm 0.00 in0.0 mm 0.00 in0.0 mm
11:45 AM 72.7°F22.6°C 57.5°F14.2°C 59% 16.8 mph NNE27.0 kmh NNE 21.3 mph34.3 kmh 29.86 in1011.2 mb 0.00 in0.0 mm 0.00 in0.0 mm 0.00 in0.0 mm
12:00 PM 73.0°F22.8°C 58.3°F14.6°C 60% 15.9 mph NNE25.6 kmh NNE 22.8 mph36.7 kmh 29.85 in1010.8 mb 0.00 in0.0 mm 0.00 in0.0 mm 0.00 in0.0 mm
12:15 PM 73.4°F23.0°C 57.2°F14.0°C 57% 12.1 mph NNE19.5 kmh NNE 22.8 mph36.7 kmh 29.85 in1010.8 mb 0.00 in0.0 mm 0.00 in0.0 mm 0.00 in0.0 mm
12:30 PM 73.4°F23.0°C 57.7°F14.3°C 58% 17.4 mph N28.0 kmh N 24.4 mph39.3 kmh 29.84 in1010.5 mb 0.00 in0.0 mm 0.00 in0.0 mm 0.00 in0.0 mm
12:45 PM 73.9°F23.3°C 58.7°F14.8°C 59% 13.6 mph NNW21.9 kmh NNW 22.1 mph35.6 kmh 29.84 in1010.5 mb 0.00 in0.0 mm 0.00 in0.0 mm 0.00 in0.0 mm
01:00 PM 73.4°F23.0°C 58.7°F14.8°C 60% 15.9 mph NE25.6 kmh NE 21.3 mph34.3 kmh 29.84 in1010.5 mb 0.00 in0.0 mm 0.00 in0.0 mm 0.00 in0.0 mm
01:15 PM 74.7°F23.7°C 58.9°F14.9°C 58% 13.6 mph N21.9 kmh N 19.7 mph31.7 kmh 29.83 in1010.2 mb 0.00 in0.0 mm 0.00 in0.0 mm 0.00 in0.0 mm
01:30 PM 74.1°F23.4°C 58.9°F14.9°C 59% 13.6 mph N21.9 kmh N 19.7 mph31.7 kmh 29.83 in1010.2 mb 0.00 in0.0 mm 0.00 in0.0 mm 0.00 in0.0 mm
01:45 PM 73.8°F23.2°C 58.5°F14.7°C 59% 13.0 mph NNE20.9 kmh NNE 23.5 mph37.8 kmh 29.83 in1010.2 mb 0.00 in0.0 mm 0.00 in0.0 mm 0.00 in0.0 mm
02:00 PM 73.9°F23.3°C 59.2°F15.1°C 60% 12.1 mph NNE19.5 kmh NNE 22.8 mph36.7 kmh 29.84 in1010.5 mb 0.00 in0.0 mm 0.00 in0.0 mm 0.00 in0.0 mm
02:15 PM 73.9°F23.3°C 59.2°F15.1°C 60% 13.0 mph NNE20.9 kmh NNE 22.8 mph36.7 kmh 29.82 in1009.8 mb 0.00 in0.0 mm 0.00 in0.0 mm 0.00 in0.0 mm
02:30 PM 73.6°F23.1°C 58.8°F14.9°C 60% 13.0 mph N20.9 kmh N 20.6 mph33.2 kmh 29.83 in1010.2 mb 0.00 in0.0 mm 0.00 in0.0 mm 0.00 in0.0 mm
02:45 PM 74.1°F23.4°C 59.3°F15.2°C 60% 15.2 mph NNE24.5 kmh NNE 22.8 mph36.7 kmh 29.83 in1010.2 mb 0.00 in0.0 mm 0.00 in0.0 mm 0.00 in0.0 mm
03:00 PM 73.6°F23.1°C 59.3°F15.2°C 61% 12.1 mph NNE19.5 kmh NNE 22.1 mph35.6 kmh 29.83 in1010.2 mb 0.00 in0.0 mm 0.00 in0.0 mm 0.00 in0.0 mm
03:15 PM 73.9°F23.3°C 59.2°F15.1°C 60% 17.4 mph N28.0 kmh N 22.1 mph35.6 kmh 29.83 in1010.2 mb 0.00 in0.0 mm 0.00 in0.0 mm 0.00 in0.0 mm
03:30 PM 73.4°F23.0°C 59.1°F15.1°C 61% 13.0 mph NNE20.9 kmh NNE 25.1 mph40.4 kmh 29.82 in1009.8 mb 0.00 in0.0 mm 0.00 in0.0 mm 0.00 in0.0 mm
03:45 PM 73.9°F23.3°C 59.6°F15.3°C 61% 11.4 mph NNE18.3 kmh NNE 19.7 mph31.7 kmh 29.82 in1009.8 mb 0.00 in0.0 mm 0.00 in0.0 mm 0.00 in0.0 mm
04:00 PM 73.0°F22.8°C 58.8°F14.9°C 61% 13.0 mph N20.9 kmh N 22.1 mph35.6 kmh 29.82 in1009.8 mb 0.00 in0.0 mm 0.00 in0.0 mm 0.00 in0.0 mm
04:15 PM 73.0°F22.8°C 58.8°F14.9°C 61% 19.0 mph N30.6 kmh N 24.4 mph39.3 kmh 29.82 in1009.8 mb 0.00 in0.0 mm 0.00 in0.0 mm 0.00 in0.0 mm
04:30 PM 72.7°F22.6°C 58.5°F14.7°C 61% 15.2 mph NNE24.5 kmh NNE 24.4 mph39.3 kmh 29.81 in1009.5 mb 0.00 in0.0 mm 0.00 in0.0 mm 0.00 in0.0 mm
04:45 PM 72.5°F22.5°C 58.7°F14.8°C 62% 18.3 mph NNE29.5 kmh NNE 25.1 mph40.4 kmh 29.81 in1009.5 mb 0.00 in0.0 mm 0.00 in0.0 mm 0.00 in0.0 mm
05:00 PM 72.5°F22.5°C 59.2°F15.1°C 63% 15.9 mph NNE25.6 kmh NNE 19.0 mph30.6 kmh 29.81 in1009.5 mb 0.00 in0.0 mm 0.00 in0.0 mm 0.00 in0.0 mm
05:15 PM 71.8°F22.1°C 60.2°F15.7°C 67% 15.2 mph NNE24.5 kmh NNE 22.1 mph35.6 kmh 29.80 in1009.1 mb 0.00 in0.0 mm 0.00 in0.0 mm 0.00 in0.0 mm
05:30 PM 71.6°F22.0°C 61.3°F16.3°C 70% 15.2 mph N24.5 kmh N 25.9 mph41.7 kmh 29.80 in1009.1 mb 0.00 in0.0 mm 0.00 in0.0 mm 0.00 in0.0 mm
05:45 PM 71.4°F21.9°C 60.7°F15.9°C 69% 15.9 mph NNE25.6 kmh NNE 24.4 mph39.3 kmh 29.80 in1009.1 mb 0.00 in0.0 mm 0.00 in0.0 mm 0.00 in0.0 mm
06:00 PM 71.1°F21.7°C 60.4°F15.8°C 69% 13.0 mph NNE20.9 kmh NNE 21.3 mph34.3 kmh 29.80 in1009.1 mb 0.00 in0.0 mm 0.00 in0.0 mm 0.00 in0.0 mm
06:15 PM 70.2°F21.2°C 59.9°F15.5°C 70% 17.4 mph N28.0 kmh N 25.1 mph40.4 kmh 29.80 in1009.1 mb 0.00 in0.0 mm 0.00 in0.0 mm 0.00 in0.0 mm
06:30 PM 70.2°F21.2°C 59.9°F15.5°C 70% 15.2 mph N24.5 kmh N 22.8 mph36.7 kmh 29.80 in1009.1 mb 0.00 in0.0 mm 0.00 in0.0 mm 0.00 in0.0 mm
06:45 PM 69.4°F20.8°C 59.6°F15.3°C 71% 12.1 mph NNE19.5 kmh NNE 23.5 mph37.8 kmh 29.80 in1009.1 mb 0.00 in0.0 mm 0.00 in0.0 mm 0.00 in0.0 mm
07:00 PM 68.7°F20.4°C 59.3°F15.2°C 72% 12.1 mph NNE19.5 kmh NNE 22.8 mph36.7 kmh 29.79 in1008.8 mb 0.00 in0.0 mm 0.00 in0.0 mm 0.00 in0.0 mm
07:15 PM 68.0°F20.0°C 59.0°F15.0°C 73% 14.5 mph NNE23.3 kmh NNE 24.4 mph39.3 kmh 29.79 in1008.8 mb 0.00 in0.0 mm 0.00 in0.0 mm 0.00 in0.0 mm
07:30 PM 67.8°F19.9°C 58.8°F14.9°C 73% 15.2 mph N24.5 kmh N 22.1 mph35.6 kmh 29.79 in1008.8 mb 0.00 in0.0 mm 0.00 in0.0 mm 0.00 in0.0 mm
07:45 PM 67.6°F19.8°C 58.3°F14.6°C 72% 12.1 mph NNE19.5 kmh NNE 25.1 mph40.4 kmh 29.79 in1008.8 mb 0.00 in0.0 mm 0.00 in0.0 mm 0.00 in0.0 mm
08:00 PM 67.5°F19.7°C 58.5°F14.7°C 73% 13.0 mph NNE20.9 kmh NNE 24.4 mph39.3 kmh 29.79 in1008.8 mb 0.00 in0.0 mm 0.00 in0.0 mm 0.00 in0.0 mm
08:15 PM 67.1°F19.5°C 58.5°F14.7°C 74% 17.4 mph N28.0 kmh N 22.8 mph36.7 kmh 29.80 in1009.1 mb 0.00 in0.0 mm 0.00 in0.0 mm 0.00 in0.0 mm
08:30 PM 66.7°F19.3°C 59.3°F15.2°C 77% 13.0 mph NNE20.9 kmh NNE 22.1 mph35.6 kmh 29.80 in1009.1 mb 0.00 in0.0 mm 0.00 in0.0 mm 0.00 in0.0 mm
08:45 PM 66.6°F19.2°C 59.5°F15.3°C 78% 13.0 mph N20.9 kmh N 22.8 mph36.7 kmh 29.80 in1009.1 mb 0.00 in0.0 mm 0.00 in0.0 mm 0.00 in0.0 mm
09:00 PM 66.7°F19.3°C 58.9°F14.9°C 76% 13.0 mph NNE20.9 kmh NNE 21.3 mph34.3 kmh 29.80 in1009.1 mb 0.00 in0.0 mm 0.00 in0.0 mm 0.00 in0.0 mm
09:15 PM 66.9°F19.4°C 58.4°F14.7°C 74% 15.9 mph NNE25.6 kmh NNE 21.3 mph34.3 kmh 29.80 in1009.1 mb 0.00 in0.0 mm 0.00 in0.0 mm 0.00 in0.0 mm
09:30 PM 67.1°F19.5°C 58.5°F14.7°C 74% 13.0 mph NNE20.9 kmh NNE 18.3 mph29.5 kmh 29.81 in1009.5 mb 0.00 in0.0 mm 0.00 in0.0 mm 0.00 in0.0 mm
09:45 PM 66.4°F19.1°C 59.3°F15.2°C 78% 13.6 mph N21.9 kmh N 20.6 mph33.2 kmh 29.81 in1009.5 mb 0.00 in0.0 mm 0.00 in0.0 mm 0.00 in0.0 mm
10:00 PM 66.0°F18.9°C 59.7°F15.4°C 80% 12.1 mph N19.5 kmh N 23.5 mph37.8 kmh 29.81 in1009.5 mb 0.00 in0.0 mm 0.00 in0.0 mm 0.00 in0.0 mm
10:15 PM 66.2°F19.0°C 59.5°F15.3°C 79% 12.1 mph NNE19.5 kmh NNE 18.3 mph29.5 kmh 29.81 in1009.5 mb 0.00 in0.0 mm 0.00 in0.0 mm 0.00 in0.0 mm
10:30 PM 66.2°F19.0°C 60.2°F15.7°C 81% 10.7 mph N17.2 kmh N 16.8 mph27.0 kmh 29.82 in1009.8 mb 0.00 in0.0 mm 0.00 in0.0 mm 0.00 in0.0 mm
10:45 PM 65.8°F18.8°C 59.8°F15.4°C 81% 8.3 mph NE13.4 kmh NE 15.2 mph24.5 kmh 29.80 in1009.1 mb 0.00 in0.0 mm 0.00 in0.0 mm 0.00 in0.0 mm
11:00 PM 65.8°F18.8°C 59.8°F15.4°C 81% 9.8 mph N15.8 kmh N 19.0 mph30.6 kmh 29.80 in1009.1 mb 0.00 in0.0 mm 0.00 in0.0 mm 0.00 in0.0 mm
11:15 PM 65.8°F18.8°C 60.2°F15.7°C 82% 14.5 mph NNE23.3 kmh NNE 22.8 mph36.7 kmh 29.80 in1009.1 mb 0.00 in0.0 mm 0.00 in0.0 mm 0.00 in0.0 mm
11:30 PM 65.5°F18.6°C 60.2°F15.7°C 83% 15.9 mph NE25.6 kmh NE 18.3 mph29.5 kmh 29.80 in1009.1 mb 0.00 in0.0 mm 0.00 in0.0 mm 0.00 in0.0 mm
11:45 PM 65.5°F18.6°C 60.2°F15.7°C 83% 13.6 mph NNE21.9 kmh NNE 19.7 mph31.7 kmh 29.80 in1009.1 mb 0.00 in0.0 mm 0.00 in0.0 mm 0.00 in0.0 mm